Time;durP1;ratioP1;P1;durP2;ratioP2;P2;SDS_P1;SDS_P2;PMS_P1;PMS_P2;Temp;Humidity;BMP_temperature;BMP_pressure;BME280_temperature;BME280_humidity;BME280_pressure;Samples;Min_cycle;Max_cycle;Signal;HPM_P1;HPM_P2
2022/07/26 00:01:35;;;;;;;4.32;2.00;;;;;;;;;;5019434;28;20567;-76
2022/07/26 00:04:01;;;;;;;5.22;2.05;;;;;;;;;;5027999;28;20057;-76
2022/07/26 00:06:27;;;;;;;2.30;1.70;;;;;;;;;;5028781;28;20510;-76
2022/07/26 00:08:54;;;;;;;4.95;2.42;;;;;;;;;;5025908;28;20041;-76
2022/07/26 00:11:20;;;;;;;5.45;2.40;;;;;;;;;;5028956;28;20029;-77
2022/07/26 00:13:47;;;;;;;4.00;2.15;;;;;;;;;;5026501;28;20040;-76
2022/07/26 00:16:13;;;;;;;1.83;1.70;;;;;;;;;;5030336;28;20037;-77
2022/07/26 00:18:40;;;;;;;4.28;2.00;;;;;;;;;;5026672;28;20523;-77
2022/07/26 00:21:06;;;;;;;5.30;2.60;;;;;;;;;;5028957;28;20494;-76
2022/07/26 00:23:32;;;;;;;4.53;2.00;;;;;;;;;;5031468;28;20047;-76
2022/07/26 00:25:58;;;;;;;2.20;1.75;;;;;;;;;;5033567;28;20539;-77
2022/07/26 00:28:24;;;;;;;3.20;2.00;;;;;;;;;;5027225;28;20037;-77
2022/07/26 00:30:50;;;;;;;3.90;2.38;;;;;;;;;;5026021;28;21139;-76
2022/07/26 00:33:16;;;;;;;3.20;2.30;;;;;;;;;;5025857;28;20030;-77
2022/07/26 00:35:42;;;;;;;3.53;2.00;;;;;;;;;;5027109;28;20112;-77
2022/07/26 00:38:09;;;;;;;3.65;2.00;;;;;;;;;;5027631;28;20136;-76
2022/07/26 00:40:35;;;;;;;2.97;1.80;;;;;;;;;;5027495;28;20040;-75
2022/07/26 00:43:02;;;;;;;3.50;2.10;;;;;;;;;;5025652;28;20052;-77
2022/07/26 00:45:28;;;;;;;3.70;1.77;;;;;;;;;;5029556;28;20057;-77
2022/07/26 00:47:54;;;;;;;3.75;1.90;;;;;;;;;;5029292;28;20029;-77
2022/07/26 00:50:20;;;;;;;4.53;1.90;;;;;;;;;;5027651;28;20022;-76
2022/07/26 00:52:47;;;;;;;3.60;2.47;;;;;;;;;;5032950;28;20613;-76
2022/07/26 00:55:14;;;;;;;3.50;2.17;;;;;;;;;;5026416;28;20040;-76
2022/07/26 00:57:41;;;;;;;3.53;1.77;;;;;;;;;;5024518;28;20083;-76
2022/07/26 01:00:12;;;;;;;3.58;1.98;;;;;;;;;;5029928;28;20029;-77
2022/07/26 01:02:38;;;;;;;3.50;1.70;;;;;;;;;;5029025;28;20490;-76
2022/07/26 01:05:04;;;;;;;2.75;2.08;;;;;;;;;;5032952;28;20034;-77
2022/07/26 01:07:30;;;;;;;2.63;1.60;;;;;;;;;;5032545;28;20036;-76
2022/07/26 01:09:57;;;;;;;2.45;2.25;;;;;;;;;;5032360;28;20101;-76
2022/07/26 01:12:23;;;;;;;3.63;1.50;;;;;;;;;;5031337;28;20030;-76
2022/07/26 01:14:49;;;;;;;2.00;1.42;;;;;;;;;;5030011;28;20091;-76
2022/07/26 01:17:15;;;;;;;2.10;1.45;;;;;;;;;;5033650;28;20369;-77
2022/07/26 01:19:42;;;;;;;2.00;1.80;;;;;;;;;;5032331;28;20022;-76
2022/07/26 01:22:08;;;;;;;1.63;1.40;;;;;;;;;;5024556;28;20025;-75
2022/07/26 01:24:34;;;;;;;3.20;1.85;;;;;;;;;;5028145;28;20113;-76
2022/07/26 01:27:00;;;;;;;1.52;1.42;;;;;;;;;;5029977;28;20083;-77
2022/07/26 01:29:26;;;;;;;1.95;1.23;;;;;;;;;;5037740;28;20128;-76
2022/07/26 01:31:52;;;;;;;3.47;1.60;;;;;;;;;;5028778;28;20399;-76
2022/07/26 01:34:18;;;;;;;4.10;1.67;;;;;;;;;;5029172;28;20465;-77
2022/07/26 01:36:45;;;;;;;2.40;1.33;;;;;;;;;;5026796;28;20100;-76
2022/07/26 01:39:15;;;;;;;1.75;1.20;;;;;;;;;;5024841;28;20025;-75
2022/07/26 01:41:41;;;;;;;3.60;1.40;;;;;;;;;;5028622;28;20025;-76
2022/07/26 01:44:07;;;;;;;2.97;1.50;;;;;;;;;;5031558;28;20030;-76
2022/07/26 01:46:34;;;;;;;2.90;1.88;;;;;;;;;;5028834;28;20021;-75
2022/07/26 01:49:00;;;;;;;1.67;1.42;;;;;;;;;;5029769;28;20391;-76
2022/07/26 01:51:27;;;;;;;4.35;1.85;;;;;;;;;;5027923;28;20025;-76
2022/07/26 01:53:53;;;;;;;2.15;2.00;;;;;;;;;;5029362;28;20057;-75
2022/07/26 01:56:19;;;;;;;1.85;1.50;;;;;;;;;;5025865;28;20040;-74
2022/07/26 01:58:45;;;;;;;1.50;1.40;;;;;;;;;;5029029;28;20349;-76
2022/07/26 02:01:11;;;;;;;1.90;1.50;;;;;;;;;;5028988;28;20028;-76
2022/07/26 02:03:37;;;;;;;4.70;1.80;;;;;;;;;;5026058;28;20036;-75
2022/07/26 02:06:04;;;;;;;2.38;1.80;;;;;;;;;;5024668;28;20379;-76
2022/07/26 02:08:30;;;;;;;3.70;2.35;;;;;;;;;;5029571;28;20030;-76
2022/07/26 02:10:59;;;;;;;3.53;2.13;;;;;;;;;;5025751;28;20071;-76
2022/07/26 02:13:29;;;;;;;2.83;1.90;;;;;;;;;;5025492;28;20034;-76
2022/07/26 02:15:57;;;;;;;2.33;1.88;;;;;;;;;;5026983;28;20029;-76
2022/07/26 02:18:24;;;;;;;3.00;1.98;;;;;;;;;;5019982;28;20033;-76
2022/07/26 02:20:50;;;;;;;3.10;1.65;;;;;;;;;;5029774;28;20503;-76
2022/07/26 02:23:16;;;;;;;3.42;1.95;;;;;;;;;;5029055;28;20041;-76
2022/07/26 02:25:42;;;;;;;3.10;1.73;;;;;;;;;;5030368;28;20048;-77
2022/07/26 02:28:08;;;;;;;1.85;1.60;;;;;;;;;;5029839;28;20040;-76
2022/07/26 02:30:35;;;;;;;3.38;1.88;;;;;;;;;;5029034;28;20022;-76
2022/07/26 02:33:01;;;;;;;3.53;2.30;;;;;;;;;;5028699;28;20545;-76
2022/07/26 02:35:27;;;;;;;2.45;1.90;;;;;;;;;;5028400;28;20029;-76
2022/07/26 02:37:53;;;;;;;2.92;1.80;;;;;;;;;;5026246;28;20091;-76
2022/07/26 02:40:19;;;;;;;2.00;1.80;;;;;;;;;;5030555;28;20038;-76
2022/07/26 02:42:45;;;;;;;4.78;1.95;;;;;;;;;;5030871;28;20018;-76
2022/07/26 02:45:11;;;;;;;2.50;1.73;;;;;;;;;;5030695;28;20076;-76
2022/07/26 02:47:44;;;;;;;1.70;1.60;;;;;;;;;;5028314;28;20093;-76
2022/07/26 02:50:11;;;;;;;2.03;1.83;;;;;;;;;;5031583;28;20395;-77
2022/07/26 02:52:37;;;;;;;1.70;1.60;;;;;;;;;;5024630;28;20025;-75
2022/07/26 02:55:03;;;;;;;5.10;1.90;;;;;;;;;;5026911;28;20030;-77
2022/07/26 02:57:29;;;;;;;4.97;1.80;;;;;;;;;;5028342;28;20144;-75
2022/07/26 02:59:55;;;;;;;2.35;1.73;;;;;;;;;;5030165;28;20028;-77
2022/07/26 03:02:21;;;;;;;4.78;1.70;;;;;;;;;;5028825;28;20033;-76
2022/07/26 03:04:47;;;;;;;2.10;1.60;;;;;;;;;;5030146;28;20483;-77
2022/07/26 03:07:13;;;;;;;2.72;1.92;;;;;;;;;;5031295;28;20429;-76
2022/07/26 03:09:39;;;;;;;1.80;1.70;;;;;;;;;;5027230;28;20030;-76
2022/07/26 03:12:05;;;;;;;2.58;1.90;;;;;;;;;;5030433;28;20025;-76
2022/07/26 03:14:31;;;;;;;2.97;2.00;;;;;;;;;;5025616;28;20518;-75
2022/07/26 03:16:57;;;;;;;4.15;2.03;;;;;;;;;;5026459;28;20286;-75
2022/07/26 03:19:23;;;;;;;1.75;1.50;;;;;;;;;;5024756;28;20025;-76
2022/07/26 03:21:49;;;;;;;2.20;1.75;;;;;;;;;;5021561;28;20104;-76
2022/07/26 03:24:16;;;;;;;2.05;1.70;;;;;;;;;;5025294;28;20188;-76
2022/07/26 03:26:42;;;;;;;1.70;1.60;;;;;;;;;;5023321;28;20031;-76
2022/07/26 03:29:08;;;;;;;3.58;2.15;;;;;;;;;;5019334;28;20152;-75
2022/07/26 03:31:34;;;;;;;5.13;1.95;;;;;;;;;;5023089;28;20045;-76
2022/07/26 03:34:00;;;;;;;3.65;1.73;;;;;;;;;;5029260;28;20018;-77
2022/07/26 03:36:26;;;;;;;2.08;1.77;;;;;;;;;;5025730;28;20083;-77
2022/07/26 03:38:52;;;;;;;2.00;1.60;;;;;;;;;;5029345;28;20092;-77
2022/07/26 03:41:18;;;;;;;2.28;1.50;;;;;;;;;;5027492;28;20017;-76
2022/07/26 03:43:44;;;;;;;2.67;1.73;;;;;;;;;;5027642;28;20022;-76
2022/07/26 03:46:10;;;;;;;1.75;1.65;;;;;;;;;;5028971;28;20101;-76
2022/07/26 03:48:37;;;;;;;2.95;1.60;;;;;;;;;;5024383;28;20033;-76
2022/07/26 03:51:03;;;;;;;5.03;2.33;;;;;;;;;;5028689;28;20026;-77
2022/07/26 03:53:29;;;;;;;3.75;1.67;;;;;;;;;;5028330;28;20036;-77
2022/07/26 03:58:40;;;;;;;2.80;1.87;;;;;;;;;;5026476;28;20078;-76
2022/07/26 04:01:06;;;;;;;1.98;1.50;;;;;;;;;;5028260;28;20040;-76
2022/07/26 04:03:32;;;;;;;2.35;1.65;;;;;;;;;;5026760;28;20624;-76
2022/07/26 04:05:58;;;;;;;2.05;1.60;;;;;;;;;;5024708;28;20034;-76
2022/07/26 04:08:25;;;;;;;3.20;1.60;;;;;;;;;;5027786;28;20022;-75
2022/07/26 04:10:51;;;;;;;4.40;2.00;;;;;;;;;;5029929;28;20021;-76
2022/07/26 04:13:17;;;;;;;2.60;1.58;;;;;;;;;;5025910;28;20029;-75
2022/07/26 04:15:43;;;;;;;1.77;1.60;;;;;;;;;;5024049;28;20468;-76
2022/07/26 04:18:09;;;;;;;2.75;1.77;;;;;;;;;;5023609;28;20124;-76
2022/07/26 04:20:35;;;;;;;3.28;1.70;;;;;;;;;;5028269;28;20032;-75
2022/07/26 04:23:01;;;;;;;7.07;1.90;;;;;;;;;;5028226;28;20021;-77
2022/07/26 04:25:27;;;;;;;2.22;1.83;;;;;;;;;;5024975;28;20039;-76
2022/07/26 04:27:53;;;;;;;2.72;1.70;;;;;;;;;;5028932;28;20021;-75
2022/07/26 04:30:20;;;;;;;4.72;1.75;;;;;;;;;;5027602;28;20049;-76
2022/07/26 04:32:46;;;;;;;4.30;1.70;;;;;;;;;;5020388;28;20477;-76
2022/07/26 04:35:12;;;;;;;4.03;1.83;;;;;;;;;;5028905;28;20021;-76
2022/07/26 04:37:39;;;;;;;5.75;1.60;;;;;;;;;;5027528;28;20048;-77
2022/07/26 04:40:05;;;;;;;1.88;1.60;;;;;;;;;;5028577;28;20033;-76
2022/07/26 04:42:31;;;;;;;4.82;1.88;;;;;;;;;;5029325;28;20497;-75
2022/07/26 04:44:57;;;;;;;4.82;1.77;;;;;;;;;;5028577;28;20387;-76
2022/07/26 04:47:23;;;;;;;2.35;1.38;;;;;;;;;;5027613;28;20021;-75
2022/07/26 04:49:49;;;;;;;2.30;1.65;;;;;;;;;;5019881;28;20026;-76
2022/07/26 04:52:16;;;;;;;2.67;1.88;;;;;;;;;;5027854;28;20029;-76
2022/07/26 04:54:42;;;;;;;2.95;1.70;;;;;;;;;;5028922;28;20024;-76
2022/07/26 04:57:08;;;;;;;2.42;1.50;;;;;;;;;;5027473;28;20053;-76
2022/07/26 04:59:34;;;;;;;3.20;1.77;;;;;;;;;;5027030;28;20025;-75
2022/07/26 05:02:00;;;;;;;1.75;1.50;;;;;;;;;;5023147;28;20021;-75
2022/07/26 05:04:27;;;;;;;5.20;1.88;;;;;;;;;;5024181;28;20021;-75
2022/07/26 05:06:53;;;;;;;3.00;1.80;;;;;;;;;;5027849;28;20047;-75
2022/07/26 05:09:20;;;;;;;2.97;1.70;;;;;;;;;;5030918;28;20029;-76
2022/07/26 05:11:46;;;;;;;3.45;1.65;;;;;;;;;;5029440;28;20026;-74
2022/07/26 05:14:12;;;;;;;1.75;1.50;;;;;;;;;;5028639;28;20018;-75
2022/07/26 05:16:38;;;;;;;4.18;1.63;;;;;;;;;;5025700;28;20030;-75
2022/07/26 05:19:04;;;;;;;3.47;1.70;;;;;;;;;;5025980;28;20051;-75
2022/07/26 05:21:30;;;;;;;2.40;1.58;;;;;;;;;;5024688;28;20117;-75
2022/07/26 05:23:56;;;;;;;3.28;1.60;;;;;;;;;;5026025;28;20026;-75
2022/07/26 05:26:22;;;;;;;1.50;1.40;;;;;;;;;;5029700;28;20033;-75
2022/07/26 05:28:48;;;;;;;4.57;1.80;;;;;;;;;;5025431;28;20033;-75
2022/07/26 05:31:14;;;;;;;1.60;1.42;;;;;;;;;;5026659;28;20053;-75
2022/07/26 05:33:40;;;;;;;3.35;1.90;;;;;;;;;;5025125;28;20029;-75
2022/07/26 05:36:07;;;;;;;3.83;1.98;;;;;;;;;;5025764;28;20029;-75
2022/07/26 05:38:33;;;;;;;3.42;1.70;;;;;;;;;;5030082;28;20029;-75
2022/07/26 05:40:59;;;;;;;5.60;2.22;;;;;;;;;;5029440;28;20029;-75
2022/07/26 05:43:26;;;;;;;4.88;1.80;;;;;;;;;;5029729;28;20056;-76
2022/07/26 05:45:53;;;;;;;3.83;1.65;;;;;;;;;;5031851;28;20017;-76
2022/07/26 05:48:19;;;;;;;2.25;1.65;;;;;;;;;;5014636;28;20029;-76
2022/07/26 05:50:45;;;;;;;4.93;1.95;;;;;;;;;;5029748;28;20029;-75
2022/07/26 05:53:11;;;;;;;2.38;1.65;;;;;;;;;;5032072;28;20391;-75
2022/07/26 05:55:37;;;;;;;5.43;1.70;;;;;;;;;;5031303;28;20037;-75
2022/07/26 05:58:03;;;;;;;4.57;1.80;;;;;;;;;;5029554;28;20032;-75
2022/07/26 06:00:29;;;;;;;2.78;1.80;;;;;;;;;;5029156;28;20014;-75
2022/07/26 06:02:55;;;;;;;4.68;2.00;;;;;;;;;;5029026;28;20131;-75
2022/07/26 06:05:21;;;;;;;3.70;1.90;;;;;;;;;;5030345;28;20025;-75
2022/07/26 06:07:47;;;;;;;3.95;2.08;;;;;;;;;;5034130;28;20097;-75
2022/07/26 06:10:14;;;;;;;7.10;3.78;;;;;;;;;;5028545;28;20518;-75
2022/07/26 06:12:40;;;;;;;2.30;1.83;;;;;;;;;;5028944;28;20080;-75
2022/07/26 06:15:06;;;;;;;4.25;2.50;;;;;;;;;;5030462;28;20038;-75
2022/07/26 06:17:32;;;;;;;5.85;2.00;;;;;;;;;;5032834;28;20022;-75
2022/07/26 06:19:59;;;;;;;5.93;2.83;;;;;;;;;;5027897;28;20030;-75
2022/07/26 06:22:26;;;;;;;3.03;1.85;;;;;;;;;;5031720;28;20483;-76
2022/07/26 06:24:52;;;;;;;3.28;2.05;;;;;;;;;;5029907;28;20052;-75
2022/07/26 06:27:18;;;;;;;3.58;2.28;;;;;;;;;;5029440;28;20513;-77
2022/07/26 06:29:47;;;;;;;4.68;1.88;;;;;;;;;;5028827;28;20062;-76
2022/07/26 06:32:13;;;;;;;4.28;1.75;;;;;;;;;;5026142;28;20450;-76
2022/07/26 06:34:39;;;;;;;4.22;2.38;;;;;;;;;;5032729;28;20021;-76
2022/07/26 06:37:05;;;;;;;3.08;2.05;;;;;;;;;;5029259;28;20419;-75
2022/07/26 06:39:31;;;;;;;4.70;2.10;;;;;;;;;;5026885;28;20029;-76
2022/07/26 06:41:57;;;;;;;6.28;2.10;;;;;;;;;;5029703;28;20479;-76
2022/07/26 06:44:23;;;;;;;4.07;1.92;;;;;;;;;;5030026;28;20045;-76
2022/07/26 06:46:49;;;;;;;3.03;1.95;;;;;;;;;;5026956;28;20032;-76
2022/07/26 06:49:16;;;;;;;4.82;1.63;;;;;;;;;;5028903;28;20502;-76
2022/07/26 06:51:42;;;;;;;2.65;1.90;;;;;;;;;;5026197;28;20080;-75
2022/07/26 06:54:08;;;;;;;3.70;1.80;;;;;;;;;;5025204;28;20026;-77
2022/07/26 06:56:34;;;;;;;3.47;2.38;;;;;;;;;;5028934;28;20025;-76
2022/07/26 06:59:01;;;;;;;1.98;1.70;;;;;;;;;;5026254;28;20030;-77
2022/07/26 07:01:27;;;;;;;5.18;2.22;;;;;;;;;;5030502;28;20112;-76
2022/07/26 07:03:53;;;;;;;4.30;2.08;;;;;;;;;;5031331;28;20025;-76
2022/07/26 07:06:19;;;;;;;2.83;2.35;;;;;;;;;;5024577;28;20072;-76
2022/07/26 07:08:48;;;;;;;4.18;2.05;;;;;;;;;;5031194;28;20038;-75
2022/07/26 07:11:14;;;;;;;2.92;2.20;;;;;;;;;;5031763;28;20043;-77
2022/07/26 07:13:40;;;;;;;2.78;2.05;;;;;;;;;;5030723;28;20029;-77
2022/07/26 07:16:06;;;;;;;6.15;1.70;;;;;;;;;;5029485;28;20029;-76
2022/07/26 07:18:33;;;;;;;3.58;1.73;;;;;;;;;;5030354;28;20169;-76
2022/07/26 07:20:59;;;;;;;2.90;1.60;;;;;;;;;;5031038;28;20021;-77
2022/07/26 07:23:25;;;;;;;3.92;1.75;;;;;;;;;;5030898;28;20032;-76
2022/07/26 07:25:51;;;;;;;2.72;1.80;;;;;;;;;;5032229;28;20013;-76
2022/07/26 07:28:17;;;;;;;3.35;1.77;;;;;;;;;;5030220;28;20034;-76
2022/07/26 07:30:43;;;;;;;2.20;1.80;;;;;;;;;;5026122;28;20057;-76
2022/07/26 07:33:12;;;;;;;3.47;1.90;;;;;;;;;;5028199;28;20025;-76
2022/07/26 07:35:39;;;;;;;4.38;1.92;;;;;;;;;;5025483;28;20025;-77
2022/07/26 07:38:05;;;;;;;4.20;1.88;;;;;;;;;;5029077;28;20891;-75
2022/07/26 07:40:31;;;;;;;6.53;2.00;;;;;;;;;;5028031;28;20040;-76
2022/07/26 07:42:58;;;;;;;1.90;1.70;;;;;;;;;;5028679;28;20025;-76
2022/07/26 07:45:24;;;;;;;6.18;2.28;;;;;;;;;;5027698;28;20021;-76
2022/07/26 07:47:50;;;;;;;1.50;1.40;;;;;;;;;;5023462;28;20124;-76
2022/07/26 07:50:16;;;;;;;2.35;1.83;;;;;;;;;;5021155;28;20530;-77
2022/07/26 07:52:42;;;;;;;4.43;2.10;;;;;;;;;;5022616;28;20240;-76
2022/07/26 07:55:08;;;;;;;6.20;1.70;;;;;;;;;;5023893;28;20072;-76
2022/07/26 07:57:35;;;;;;;5.63;2.10;;;;;;;;;;5026555;28;20052;-76
2022/07/26 08:00:02;;;;;;;4.00;1.67;;;;;;;;;;5021894;28;20021;-76
2022/07/26 08:02:28;;;;;;;3.03;2.53;;;;;;;;;;5024566;28;20028;-75
2022/07/26 08:04:54;;;;;;;4.22;1.70;;;;;;;;;;5019036;28;20022;-76
2022/07/26 08:07:22;;;;;;;5.15;2.00;;;;;;;;;;5021015;28;20104;-76
2022/07/26 08:09:49;;;;;;;3.28;1.60;;;;;;;;;;5020845;28;20045;-76
2022/07/26 08:12:16;;;;;;;4.57;2.65;;;;;;;;;;5024305;28;20031;-76
2022/07/26 08:14:42;;;;;;;6.40;2.03;;;;;;;;;;5027328;28;20029;-76
2022/07/26 08:17:08;;;;;;;2.45;1.50;;;;;;;;;;5026290;28;20036;-75
2022/07/26 08:19:34;;;;;;;3.28;1.77;;;;;;;;;;5026278;28;20102;-77
2022/07/26 08:22:07;;;;;;;3.28;1.80;;;;;;;;;;5032810;28;20033;-75
2022/07/26 08:24:33;;;;;;;2.60;1.70;;;;;;;;;;5023639;28;20075;-77
2022/07/26 08:26:59;;;;;;;4.43;1.90;;;;;;;;;;5029802;28;20050;-77
2022/07/26 08:29:27;;;;;;;2.42;1.48;;;;;;;;;;5026655;28;20017;-79
2022/07/26 08:31:53;;;;;;;5.32;2.00;;;;;;;;;;5022741;28;20040;-76
2022/07/26 08:34:20;;;;;;;4.05;1.85;;;;;;;;;;5022617;28;20021;-78
2022/07/26 08:36:46;;;;;;;5.90;1.92;;;;;;;;;;5027251;28;20130;-79
2022/07/26 08:39:13;;;;;;;4.70;1.90;;;;;;;;;;5024930;28;20021;-77
2022/07/26 08:41:40;;;;;;;4.05;1.70;;;;;;;;;;5022228;28;20026;-78
2022/07/26 08:44:07;;;;;;;3.03;1.90;;;;;;;;;;5026102;28;20384;-74
2022/07/26 08:46:37;;;;;;;4.00;1.80;;;;;;;;;;5022717;28;20128;-74
2022/07/26 08:49:04;;;;;;;4.35;1.88;;;;;;;;;;5022725;28;20030;-75
2022/07/26 08:51:30;;;;;;;4.10;1.70;;;;;;;;;;5025857;28;20506;-77
2022/07/26 08:53:57;;;;;;;3.55;2.10;;;;;;;;;;5021448;28;20065;-75
2022/07/26 08:56:23;;;;;;;3.17;1.70;;;;;;;;;;5022232;28;20029;-74
2022/07/26 08:58:50;;;;;;;4.63;2.00;;;;;;;;;;5021306;28;20422;-75
2022/07/26 09:01:17;;;;;;;3.15;1.80;;;;;;;;;;5022360;28;20462;-74
2022/07/26 09:03:44;;;;;;;5.18;1.80;;;;;;;;;;5025755;28;20034;-76
2022/07/26 09:06:14;;;;;;;4.13;2.35;;;;;;;;;;5023553;28;20099;-75
2022/07/26 09:08:40;;;;;;;6.28;2.65;;;;;;;;;;5024156;28;20560;-76
2022/07/26 09:11:25;;;;;;;5.75;1.65;;;;;;;;;;5021123;28;20033;-75
2022/07/26 09:13:51;;;;;;;;;;;;;;;;;;5023991;28;20033;-73
2022/07/26 09:16:17;;;;;;;5.30;1.90;;;;;;;;;;5024789;28;20259;-75
2022/07/26 09:18:44;;;;;;;3.80;1.60;;;;;;;;;;5024554;28;20025;-73
2022/07/26 09:21:29;;;;;;;3.22;1.80;;;;;;;;;;5023793;28;20029;-75
2022/07/26 09:23:55;;;;;;;;;;;;;;;;;;5028112;28;20021;-75
2022/07/26 09:26:21;;;;;;;4.40;2.33;;;;;;;;;;5028669;28;20704;-75
2022/07/26 09:29:00;;;;;;;3.67;2.15;;;;;;;;;;5023915;28;20435;-75
2022/07/26 09:31:26;;;;;;;4.50;1.80;;;;;;;;;;5024854;28;20068;-74
2022/07/26 09:33:53;;;;;;;2.55;1.80;;;;;;;;;;5029746;28;20030;-75
2022/07/26 09:36:20;;;;;;;4.00;1.77;;;;;;;;;;5027068;28;20026;-75
2022/07/26 09:38:52;;;;;;;2.95;1.80;;;;;;;;;;5025943;28;20220;-75
2022/07/26 09:41:18;;;;;;;1.73;1.40;;;;;;;;;;5021617;28;20378;-75
2022/07/26 09:43:45;;;;;;;2.30;1.77;;;;;;;;;;5026960;28;20488;-75
2022/07/26 09:46:11;;;;;;;1.92;1.73;;;;;;;;;;5024508;28;20736;-74
2022/07/26 09:48:40;;;;;;;2.15;1.50;;;;;;;;;;5022067;28;21337;-76
2022/07/26 09:51:07;;;;;;;1.67;1.52;;;;;;;;;;5025458;28;20040;-77
2022/07/26 09:53:41;;;;;;;3.42;1.80;;;;;;;;;;5025566;28;20040;-75
2022/07/26 09:56:08;;;;;;;3.33;1.40;;;;;;;;;;5025776;28;20025;-75
2022/07/26 09:58:35;;;;;;;2.63;1.35;;;;;;;;;;5024735;28;20051;-76
2022/07/26 10:01:01;;;;;;;3.30;1.52;;;;;;;;;;5028802;28;20030;-75
2022/07/26 10:03:29;;;;;;;2.50;1.58;;;;;;;;;;5026608;28;20049;-75
2022/07/26 10:05:56;;;;;;;3.22;1.60;;;;;;;;;;5023489;28;20060;-77
2022/07/26 10:08:22;;;;;;;1.83;1.10;;;;;;;;;;5022463;28;20025;-74
2022/07/26 10:11:08;;;;;;;1.73;1.63;;;;;;;;;;5025278;28;20517;-75
2022/07/26 10:13:36;;;;;;;1.58;1.45;;;;;;;;;;5024345;28;20037;-75
2022/07/26 10:16:03;;;;;;;1.90;1.42;;;;;;;;;;5025770;28;20017;-75
2022/07/26 10:18:38;;;;;;;4.68;1.60;;;;;;;;;;5021156;28;20416;-75
2022/07/26 10:21:16;;;;;;;2.97;1.50;;;;;;;;;;5025052;28;20093;-77
2022/07/26 10:23:43;;;;;;;1.63;1.30;;;;;;;;;;5024343;28;20033;-76
2022/07/26 10:26:11;;;;;;;2.08;1.88;;;;;;;;;;5025521;28;20029;-76
2022/07/26 10:28:38;;;;;;;2.05;1.50;;;;;;;;;;5025698;28;20533;-76
2022/07/26 10:31:33;;;;;;;2.03;1.45;;;;;;;;;;5022645;28;20053;-76
2022/07/26 10:34:00;;;;;;;2.97;1.40;;;;;;;;;;5014636;28;20045;-76
2022/07/26 10:36:31;;;;;;;3.10;1.40;;;;;;;;;;5024798;28;20029;-75
2022/07/26 10:39:01;;;;;;;6.22;1.60;;;;;;;;;;5024805;28;20525;-76
2022/07/26 10:41:47;;;;;;;2.65;1.40;;;;;;;;;;5028151;28;20029;-76
2022/07/26 10:44:13;;;;;;;;;;;;;;;;;;5024860;28;20037;-76
2022/07/26 10:46:57;;;;;;;1.50;1.15;;;;;;;;;;5026679;28;19917;-76
2022/07/26 10:49:29;;;;;;;2.22;1.38;;;;;;;;;;5022408;28;20018;-76
2022/07/26 10:52:07;;;;;;;2.05;1.48;;;;;;;;;;5023089;28;20526;-74
2022/07/26 10:54:53;;;;;;;1.48;1.38;;;;;;;;;;5021959;28;20387;-76
2022/07/26 10:57:19;;;;;;;1.50;1.27;;;;;;;;;;5024512;28;20116;-74
2022/07/26 10:59:46;;;;;;;4.28;1.80;;;;;;;;;;5021528;28;20020;-75
2022/07/26 11:02:18;;;;;;;2.97;1.40;;;;;;;;;;5024079;28;20045;-75
2022/07/26 11:04:45;;;;;;;2.80;1.20;;;;;;;;;;5020762;28;20132;-73
2022/07/26 11:07:14;;;;;;;2.97;1.60;;;;;;;;;;5022443;28;20033;-76
2022/07/26 11:09:40;;;;;;;2.47;1.60;;;;;;;;;;5025710;28;20025;-77
2022/07/26 11:12:14;;;;;;;1.83;1.55;;;;;;;;;;5022696;28;20044;-77
2022/07/26 11:14:40;;;;;;;1.33;1.25;;;;;;;;;;5020811;28;20060;-77
2022/07/26 11:17:07;;;;;;;4.78;1.45;;;;;;;;;;5022325;28;20037;-77
2022/07/26 11:19:38;;;;;;;1.77;1.67;;;;;;;;;;5022110;28;20017;-77
2022/07/26 11:22:04;;;;;;;1.45;1.35;;;;;;;;;;5022524;28;20530;-78
2022/07/26 11:24:31;;;;;;;1.77;1.40;;;;;;;;;;5025398;28;20036;-78
2022/07/26 11:27:02;;;;;;;1.75;1.65;;;;;;;;;;5034176;28;20048;-79
2022/07/26 11:29:33;;;;;;;1.60;1.50;;;;;;;;;;5031915;28;20098;-78
2022/07/26 11:31:59;;;;;;;1.85;1.50;;;;;;;;;;5034428;28;20049;-78
2022/07/26 11:34:26;;;;;;;2.05;1.42;;;;;;;;;;5028057;28;20038;-78
2022/07/26 11:36:54;;;;;;;2.15;1.50;;;;;;;;;;5028553;28;20037;-78
2022/07/26 11:39:24;;;;;;;2.67;1.55;;;;;;;;;;5026186;28;20056;-77
2022/07/26 11:41:51;;;;;;;1.70;1.45;;;;;;;;;;5023643;28;20064;-78
2022/07/26 11:44:19;;;;;;;2.88;1.65;;;;;;;;;;5026905;28;20419;-79
2022/07/26 11:46:48;;;;;;;2.25;1.27;;;;;;;;;;5031243;28;20048;-78
2022/07/26 11:49:22;;;;;;;2.75;1.70;;;;;;;;;;5031422;28;20026;-80
2022/07/26 11:51:49;;;;;;;1.60;1.42;;;;;;;;;;5031002;28;20111;-78
2022/07/26 11:54:15;;;;;;;1.95;1.27;;;;;;;;;;5028451;28;20053;-78
2022/07/26 11:56:49;;;;;;;1.77;1.35;;;;;;;;;;5031376;28;20039;-79
2022/07/26 11:59:15;;;;;;;1.42;1.33;;;;;;;;;;5030864;28;20120;-78
2022/07/26 12:01:44;;;;;;;1.40;1.30;;;;;;;;;;5030397;28;20026;-78
2022/07/26 12:04:17;;;;;;;3.00;1.60;;;;;;;;;;5039529;28;20028;-78
2022/07/26 12:06:43;;;;;;;2.13;1.40;;;;;;;;;;5035026;28;20052;-77
2022/07/26 12:09:10;;;;;;;2.75;1.50;;;;;;;;;;5035119;28;20038;-76
2022/07/26 12:11:37;;;;;;;1.50;1.40;;;;;;;;;;5030567;28;20104;-78
2022/07/26 12:14:03;;;;;;;2.55;2.35;;;;;;;;;;5022603;28;20017;-77
2022/07/26 12:16:37;;;;;;;1.98;1.58;;;;;;;;;;5025760;28;20387;-79
2022/07/26 12:19:04;;;;;;;4.47;1.75;;;;;;;;;;5033539;28;20109;-77
2022/07/26 12:21:50;;;;;;;3.80;1.70;;;;;;;;;;5032233;28;20026;-77
2022/07/26 12:24:34;;;;;;;2.95;1.55;;;;;;;;;;5030527;28;20018;-76
2022/07/26 12:27:11;;;;;;;2.77;1.50;;;;;;;;;;5037949;28;20032;-78
2022/07/26 12:29:38;;;;;;;1.55;1.45;;;;;;;;;;5030120;28;20549;-78
2022/07/26 12:32:06;;;;;;;1.92;1.70;;;;;;;;;;5025460;28;20494;-78
2022/07/26 12:34:35;;;;;;;2.83;1.52;;;;;;;;;;5025249;28;20038;-77
2022/07/26 12:37:08;;;;;;;3.47;1.65;;;;;;;;;;5021324;28;20022;-76
2022/07/26 12:39:34;;;;;;;1.55;1.45;;;;;;;;;;5035286;28;20064;-79
2022/07/26 12:42:19;;;;;;;1.60;1.50;;;;;;;;;;5026210;28;20028;-78
2022/07/26 12:44:45;;;;;;;2.03;1.50;;;;;;;;;;5031357;28;20028;-78
2022/07/26 12:47:11;;;;;;;2.70;2.00;;;;;;;;;;5033498;28;20021;-77
2022/07/26 12:49:37;;;;;;;2.00;1.42;;;;;;;;;;5043444;28;20030;-76
2022/07/26 12:52:03;;;;;;;2.45;1.45;;;;;;;;;;5039829;28;20032;-77
2022/07/26 12:54:29;;;;;;;3.28;1.58;;;;;;;;;;5033415;28;20472;-78
2022/07/26 12:56:55;;;;;;;3.45;1.55;;;;;;;;;;5030108;28;20128;-79
2022/07/26 12:59:21;;;;;;;1.60;1.40;;;;;;;;;;5033141;28;20067;-78
2022/07/26 13:01:48;;;;;;;1.73;1.42;;;;;;;;;;5034010;28;20720;-79
2022/07/26 13:04:14;;;;;;;1.40;1.30;;;;;;;;;;5032037;28;20484;-77
2022/07/26 13:06:40;;;;;;;1.92;1.50;;;;;;;;;;5044005;28;20823;-77
2022/07/26 13:09:06;;;;;;;2.83;1.67;;;;;;;;;;5044665;28;20030;-77
2022/07/26 13:11:32;;;;;;;1.52;1.30;;;;;;;;;;5042127;28;20030;-77
2022/07/26 13:13:58;;;;;;;2.38;1.67;;;;;;;;;;5040800;28;20049;-79
2022/07/26 13:16:24;;;;;;;2.88;1.80;;;;;;;;;;5032967;28;20048;-78
2022/07/26 13:18:50;;;;;;;2.88;1.40;;;;;;;;;;5036218;28;20030;-77
2022/07/26 13:21:16;;;;;;;4.75;2.47;;;;;;;;;;5030376;28;20033;-78
2022/07/26 13:23:42;;;;;;;2.60;1.88;;;;;;;;;;5034295;28;20552;-77
2022/07/26 13:26:09;;;;;;;2.17;1.65;;;;;;;;;;5036887;28;20026;-77
2022/07/26 13:28:35;;;;;;;2.22;1.52;;;;;;;;;;5044629;28;20033;-78
2022/07/26 13:31:01;;;;;;;6.00;1.98;;;;;;;;;;5043107;28;20062;-77
2022/07/26 13:33:27;;;;;;;3.03;1.60;;;;;;;;;;5043067;28;20037;-78
2022/07/26 13:35:53;;;;;;;1.83;1.50;;;;;;;;;;5035873;28;20175;-78
2022/07/26 13:38:19;;;;;;;2.03;1.50;;;;;;;;;;5030926;28;20412;-76
2022/07/26 13:40:45;;;;;;;5.40;1.90;;;;;;;;;;5044815;28;20029;-78
2022/07/26 13:43:11;;;;;;;1.45;1.35;;;;;;;;;;5041328;28;20040;-78
2022/07/26 13:45:37;;;;;;;2.55;2.17;;;;;;;;;;5036585;28;20026;-78
2022/07/26 13:48:03;;;;;;;2.50;1.50;;;;;;;;;;5042144;28;20053;-77
2022/07/26 13:50:30;;;;;;;2.55;1.50;;;;;;;;;;5033881;28;20033;-79
2022/07/26 13:52:56;;;;;;;1.80;1.40;;;;;;;;;;5030914;28;20515;-78
2022/07/26 13:55:22;;;;;;;2.90;1.70;;;;;;;;;;5032493;28;20030;-78
2022/07/26 13:57:48;;;;;;;2.90;1.70;;;;;;;;;;5036900;28;20080;-77
2022/07/26 14:00:15;;;;;;;1.60;1.50;;;;;;;;;;5035380;28;20033;-77
2022/07/26 14:02:41;;;;;;;2.35;1.70;;;;;;;;;;5035756;28;20021;-79
2022/07/26 14:05:07;;;;;;;2.28;1.63;;;;;;;;;;5033188;28;20093;-78
2022/07/26 14:07:33;;;;;;;2.65;1.90;;;;;;;;;;5026134;28;20553;-79
2022/07/26 14:09:59;;;;;;;2.25;1.40;;;;;;;;;;5034386;28;20025;-77
2022/07/26 14:12:26;;;;;;;1.45;1.33;;;;;;;;;;5036270;28;20495;-77
2022/07/26 14:14:52;;;;;;;2.67;1.58;;;;;;;;;;5031524;28;20033;-78
2022/07/26 14:17:18;;;;;;;3.78;1.67;;;;;;;;;;5032134;28;20083;-78
2022/07/26 14:19:44;;;;;;;1.70;1.48;;;;;;;;;;5029276;28;20029;-76
2022/07/26 14:22:10;;;;;;;1.38;1.27;;;;;;;;;;5030606;28;20036;-78
2022/07/26 14:24:36;;;;;;;2.75;1.85;;;;;;;;;;5030943;28;20022;-77
2022/07/26 14:27:06;;;;;;;1.95;1.60;;;;;;;;;;5034135;28;20072;-77
2022/07/26 14:29:32;;;;;;;2.30;1.52;;;;;;;;;;5026068;28;20119;-77
2022/07/26 14:31:58;;;;;;;2.25;1.42;;;;;;;;;;5024904;28;20116;-78
2022/07/26 14:34:24;;;;;;;1.58;1.48;;;;;;;;;;5026989;28;20025;-78
2022/07/26 14:36:50;;;;;;;2.53;1.55;;;;;;;;;;5024140;28;20021;-75
2022/07/26 14:39:16;;;;;;;1.80;1.63;;;;;;;;;;5023369;28;20025;-76
2022/07/26 14:41:42;;;;;;;2.70;1.60;;;;;;;;;;5025824;28;20029;-76
2022/07/26 14:44:08;;;;;;;1.63;1.52;;;;;;;;;;5021660;28;20025;-77
2022/07/26 14:46:38;;;;;;;1.48;1.38;;;;;;;;;;5023941;28;20104;-74